Babb, Montana
Current Conditions -  °F | °C
As of 10:56 PM on Sunday 25 Jan 2015 (Local Time) from KCTB Reporting Station
Clear Clear  
Wind Chill:   Ceiling: Unl
Heat Index:   Visibility: 10mi
Dew Point: -2°   Wind: 9mph
Humidity: 58%   Direction: 280°W
Pressure: 30.03"   Gusts: NA
Location:  48.85°N, 113.44°W
Report Text: KCTB 260556Z AUTO 28008KT 10SM CLR 06/M02 A3003 RMK AO2 SLP174 T00611017 10111 20056 53002
Loading
Personal Weather Stations






























Interactive Weather Map New forecast layout! Learn more

10-Day Weather Forecast

Advertisements
Track Severe Weather on mobile